Time;durP1;ratioP1;P1;durP2;ratioP2;P2;SDS_P1;SDS_P2;PMS_P1;PMS_P2;Temp;Humidity;BMP_temperature;BMP_pressure;BME280_temperature;BME280_humidity;BME280_pressure;Samples;Min_cycle;Max_cycle;Signal;HPM_P1;HPM_P2
2022/03/23 00:02:12;;;;;;;;;41.25;32.25;;;;;16.38;35.67;100098.69;4901253;28;106646;-79
2022/03/23 00:04:39;;;;;;;;;27.50;23.00;;;;;16.37;36.12;100087.94;4895631;28;102413;-79
2022/03/23 00:07:06;;;;;;;;;38.25;33.75;;;;;16.38;35.72;100092.38;4892208;28;104587;-79
2022/03/23 00:09:33;;;;;;;;;37.00;32.50;;;;;16.37;35.45;100087.94;4896293;28;102227;-79
2022/03/23 00:12:20;;;;;;;;;39.50;32.50;;;;;16.36;35.77;100086.25;4901147;28;105322;-79
2022/03/23 00:14:47;;;;;;;;;40.25;32.25;;;;;16.36;35.39;100078.06;4906991;28;102253;-79
2022/03/23 00:17:14;;;;;;;;;36.75;33.00;;;;;16.35;35.92;100098.22;4898027;28;102534;-79
2022/03/23 00:19:41;;;;;;;;;35.25;30.50;;;;;16.35;35.25;100082.69;4903837;28;104395;-79
2022/03/23 00:22:08;;;;;;;;;40.50;33.50;;;;;16.34;35.35;100077.44;4898282;28;104044;-80
2022/03/23 00:24:35;;;;;;;;;38.50;33.50;;;;;16.34;35.39;100074.72;4900093;28;102294;-79
2022/03/23 00:27:03;;;;;;;;;39.25;30.75;;;;;16.33;35.31;100075.75;4900039;28;102705;-79
2022/03/23 00:29:30;;;;;;;;;31.00;28.25;;;;;16.33;35.25;100079.31;4908269;28;103691;-79
2022/03/23 00:31:56;;;;;;;;;35.50;31.50;;;;;16.32;35.81;100074.91;4897697;28;104064;-79
2022/03/23 00:34:24;;;;;;;;;36.50;31.50;;;;;16.31;35.78;100073.22;4901424;28;102611;-79
2022/03/23 00:36:51;;;;;;;;;35.75;31.50;;;;;16.31;35.57;100066.91;4901646;28;103803;-79
2022/03/23 00:39:20;;;;;;;;;28.00;27.75;;;;;16.29;35.61;100071.75;4899754;28;102916;-79
2022/03/23 00:41:49;;;;;;;;;38.25;33.00;;;;;16.29;35.42;100066.28;4900913;28;105320;-79
2022/03/23 00:44:16;;;;;;;;;41.00;33.75;;;;;16.27;35.76;100063.75;4903865;28;102717;-79
2022/03/23 00:46:43;;;;;;;;;35.25;31.50;;;;;16.26;35.91;100064.78;4900011;28;102464;-79
2022/03/23 00:49:10;;;;;;;;;36.25;30.75;;;;;16.25;35.62;100062.28;4892592;28;102656;-79
2022/03/23 00:51:37;;;;;;;;;35.25;32.50;;;;;16.24;35.45;100058.69;4898475;28;104020;-79
2022/03/23 00:54:05;;;;;;;;;38.25;32.50;;;;;16.23;35.88;100056.16;4895013;28;103704;-79
2022/03/23 00:56:32;;;;;;;;;37.00;32.00;;;;;16.22;35.09;100055.31;4912614;28;102642;-79
2022/03/23 00:58:59;;;;;;;;;37.00;32.75;;;;;16.21;35.46;100059.09;4906768;28;104076;-79
2022/03/23 01:01:29;;;;;;;;;36.50;31.00;;;;;16.22;36.02;100059.94;4887746;28;104257;-79
2022/03/23 01:03:56;;;;;;;;;40.75;32.50;;;;;16.21;35.79;100050.09;4871644;28;102750;-79
2022/03/23 01:06:23;;;;;;;;;37.25;32.00;;;;;16.20;35.37;100051.97;4888178;28;102566;-79
2022/03/23 01:08:50;;;;;;;;;37.25;30.50;;;;;16.19;35.32;100053.00;4901033;28;102678;-79
2022/03/23 01:11:17;;;;;;;;;36.50;31.50;;;;;16.18;35.49;100048.56;4900528;28;104328;-79
2022/03/23 01:13:45;;;;;;;;;34.75;31.75;;;;;16.18;35.64;100047.72;4888003;28;102790;-79
2022/03/23 01:16:12;;;;;;;;;39.75;33.00;;;;;16.18;35.55;100047.72;4913302;28;102230;-79
2022/03/23 01:18:39;;;;;;;;;34.50;28.50;;;;;16.17;35.76;100043.31;4904579;28;102690;-79
2022/03/23 01:21:06;;;;;;;;;40.00;34.00;;;;;16.16;35.35;100038.94;4898386;28;104359;-79
2022/03/23 01:23:34;;;;;;;;;37.00;32.00;;;;;16.14;35.87;100041.84;4900633;28;102971;-79
2022/03/23 01:26:01;;;;;;;;;40.75;33.00;;;;;16.13;35.07;100045.59;4902598;28;103532;-79
2022/03/23 01:28:28;;;;;;;;;39.50;33.25;;;;;16.13;35.48;100050.22;4901398;28;102259;-79
2022/03/23 01:30:56;;;;;;;;;35.25;29.75;;;;;16.12;35.52;100043.09;4903502;28;104276;-79
2022/03/23 01:33:23;;;;;;;;;36.75;32.25;;;;;16.11;35.45;100038.69;4894973;28;104814;-79
2022/03/23 01:35:50;;;;;;;;;37.25;32.00;;;;;16.10;35.45;100040.56;4897109;28;102249;-79
2022/03/23 01:38:18;;;;;;;;;34.25;31.00;;;;;16.10;35.44;100039.72;4901532;28;102563;-79
2022/03/23 01:40:46;;;;;;;;;35.50;32.00;;;;;16.08;35.40;100032.56;4891074;28;104089;-79
2022/03/23 01:43:13;;;;;;;;;33.50;30.75;;;;;16.08;35.45;100042.63;4890930;28;102900;-79
2022/03/23 01:45:40;;;;;;;;;26.75;19.50;;;;;16.06;35.38;100037.41;4900697;28;105458;-79
2022/03/23 01:48:07;;;;;;;;;40.50;32.00;;;;;16.07;35.42;100040.97;4894326;28;103202;-79
2022/03/23 01:50:37;;;;;;;;;35.00;32.00;;;;;16.06;35.44;100033.81;4894480;28;104923;-79
2022/03/23 01:53:04;;;;;;;;;37.75;33.25;;;;;16.04;35.34;100030.44;4893862;28;102167;-79
2022/03/23 01:55:31;;;;;;;;;43.25;33.25;;;;;16.05;34.97;100027.53;4898707;28;103851;-79
2022/03/23 01:57:58;;;;;;;;;44.50;33.00;;;;;16.03;35.08;100024.13;4902755;28;102415;-79
2022/03/23 02:00:28;;;;;;;;;32.25;30.75;;;;;16.03;35.36;100018.69;4893051;28;104064;-79
2022/03/23 02:02:55;;;;;;;;;39.25;34.00;;;;;16.02;35.21;100019.75;4872691;28;105338;-79
2022/03/23 02:05:22;;;;;;;;;38.50;32.50;;;;;16.01;35.40;100018.06;4891637;28;102279;-79
2022/03/23 02:07:50;;;;;;;;;40.25;33.00;;;;;16.00;35.20;100018.25;4883015;28;103939;-79
2022/03/23 02:10:17;;;;;;;;;36.75;31.25;;;;;15.98;35.43;100015.75;4887512;28;104163;-79
2022/03/23 02:12:44;;;;;;;;;34.50;32.50;;;;;15.97;35.48;100016.78;4899100;28;102207;-79
2022/03/23 02:15:13;;;;;;;;;39.00;34.00;;;;;15.96;35.28;100015.09;4901062;28;102483;-79
2022/03/23 02:17:42;;;;;;;;;39.75;32.75;;;;;15.96;35.28;100016.97;4896395;28;102219;-79
2022/03/23 02:20:11;;;;;;;;;37.50;32.50;;;;;15.97;35.13;100024.13;4891375;28;104096;-79
2022/03/23 02:22:39;;;;;;;;;42.75;33.00;;;;;15.96;35.41;100008.78;4902089;28;102625;-79
2022/03/23 02:25:07;;;;;;;;;43.75;33.50;;;;;15.96;35.56;100006.06;4912995;28;103475;-79
2022/03/23 02:27:38;;;;;;;;;43.00;31.75;;;;;15.95;35.61;100001.63;4905250;28;102315;-79
2022/03/23 02:30:07;;;;;;;;;38.75;33.25;;;;;15.96;34.93;100006.06;4879473;28;108926;-78
2022/03/23 02:32:34;;;;;;;;;33.25;31.00;;;;;15.92;35.34;100002.91;4902605;28;103817;-79
2022/03/23 02:35:01;;;;;;;;;41.00;34.00;;;;;15.94;35.39;100008.97;4901237;28;102543;-79
2022/03/23 02:37:28;;;;;;;;;34.75;31.25;;;;;15.92;35.28;99994.72;4881482;28;102676;-79
2022/03/23 02:39:56;;;;;;;;;37.00;33.50;;;;;15.91;35.71;99998.47;4897809;28;104098;-79
2022/03/23 02:42:23;;;;;;;;;39.25;33.00;;;;;15.90;35.40;100002.25;4883744;28;102584;-79
2022/03/23 02:44:50;;;;;;;;;34.00;31.25;;;;;15.89;35.33;100006.03;4895156;28;102568;-79
2022/03/23 02:47:18;;;;;;;;;38.50;33.00;;;;;15.89;35.40;99997.00;4894410;28;102566;-79
2022/03/23 02:49:45;;;;;;;;;36.25;32.25;;;;;15.87;35.30;99994.47;4896831;28;104348;-79
2022/03/23 02:52:12;;;;;;;;;31.25;22.25;;;;;15.86;35.16;99987.31;4892857;28;102311;-79
2022/03/23 03:01:52;;;;;;;;;35.25;31.00;;;;;15.86;35.37;99994.66;4905988;28;103296;-79
2022/03/23 03:03:11;;;;;;;;;18.00;12.50;;;;;15.85;35.19;99984.81;4896268;28;104081;-79
2022/03/23 03:05:38;;;;;;;;;36.25;32.00;;;;;15.85;34.94;99993.00;4903246;28;102542;-79
2022/03/23 03:10:51;;;;;;;;;32.00;27.50;;;;;15.82;35.09;99999.69;4900439;28;109247;-79
2022/03/23 03:13:18;;;;;;;;;37.75;33.25;;;;;15.83;35.31;100000.53;4898206;28;104074;-79
2022/03/23 03:15:45;;;;;;;;;39.75;33.75;;;;;15.81;34.99;100003.44;4891148;28;102571;-79
2022/03/23 03:18:12;;;;;;;;;23.50;23.50;;;;;15.81;35.19;99991.69;4900109;28;102495;-79
2022/03/23 03:20:39;;;;;;;;;34.50;30.75;;;;;15.80;35.25;100001.78;4897944;28;103114;-79
2022/03/23 03:23:06;;;;;;;;;34.00;30.75;;;;;15.79;35.29;100011.00;4902167;28;102769;-79
2022/03/23 03:25:33;;;;;;;;;35.25;30.50;;;;;15.76;35.41;100000.47;4900851;28;102353;-79
2022/03/23 03:28:00;;;;;;;;;30.00;28.50;;;;;15.76;35.16;100011.38;4904512;28;103763;-79
2022/03/23 03:30:27;;;;;;;;;35.50;31.25;;;;;15.75;35.18;100009.72;4895177;28;105164;-79
2022/03/23 03:32:54;;;;;;;;;33.50;30.25;;;;;15.74;35.40;100013.50;4903366;28;102184;-79
2022/03/23 03:35:23;;;;;;;;;34.75;31.00;;;;;15.74;35.17;100009.91;4895566;28;102755;-78
2022/03/23 03:37:50;;;;;;;;;40.00;33.75;;;;;15.74;35.61;100013.50;4894286;28;103723;-79
2022/03/23 03:40:17;;;;;;;;;31.50;28.00;;;;;15.73;35.17;100003.63;4897490;28;103977;-79
2022/03/23 03:42:44;;;;;;;;;35.50;29.50;;;;;15.73;35.24;100011.78;4900906;28;102201;-79
2022/03/23 03:45:11;;;;;;;;;37.75;31.50;;;;;15.73;35.36;100016.41;4897981;28;103645;-79
2022/03/23 03:47:38;;;;;;;;;33.50;31.00;;;;;15.73;35.37;100010.94;4908200;28;102362;-79
2022/03/23 03:50:05;;;;;;;;;37.25;30.75;;;;;15.72;34.93;100011.97;4892985;28;108448;-79
2022/03/23 03:52:33;;;;;;;;;32.25;29.50;;;;;15.71;35.08;100003.00;4898488;28;103439;-79
2022/03/23 03:55:00;;;;;;;;;31.25;29.75;;;;;15.72;35.28;100009.25;4902971;28;102354;-79
2022/03/23 03:57:27;;;;;;;;;35.25;31.00;;;;;15.70;35.20;100005.91;4920319;28;102733;-79
2022/03/23 03:59:54;;;;;;;;;33.25;30.25;;;;;15.68;35.22;100003.38;4898195;28;104070;-79
2022/03/23 04:02:21;;;;;;;;;30.75;29.25;;;;;15.67;35.14;100001.69;4900575;28;102594;-79
2022/03/23 04:04:48;;;;;;;;;37.25;30.75;;;;;15.67;35.09;100007.13;4898434;28;102663;-79
2022/03/23 04:07:15;;;;;;;;;34.50;29.25;;;;;15.67;35.32;100004.41;4902498;28;102750;-79
2022/03/23 04:09:42;;;;;;;;;37.75;32.75;;;;;15.65;35.13;99992.88;4896679;28;104088;-79
2022/03/23 04:12:09;;;;;;;;;31.75;28.25;;;;;15.64;35.61;100002.09;4897650;28;102398;-79
2022/03/23 04:14:36;;;;;;;;;30.75;27.75;;;;;15.63;34.97;100000.41;4902074;28;104251;-78
2022/03/23 04:17:04;;;;;;;;;37.50;31.00;;;;;15.63;35.30;100001.25;4899509;28;102653;-78
2022/03/23 04:19:31;;;;;;;;;35.50;31.00;;;;;15.62;35.31;100001.47;4904353;28;104085;-79
2022/03/23 04:21:58;;;;;;;;;32.00;28.50;;;;;15.61;35.14;100007.94;4903533;28;105171;-78
2022/03/23 04:24:25;;;;;;;;;32.50;29.00;;;;;15.62;35.29;100004.19;4891177;28;102635;-79
2022/03/23 04:26:52;;;;;;;;;34.75;31.00;;;;;15.61;34.90;100006.06;4899549;28;102614;-79
2022/03/23 04:29:19;;;;;;;;;32.00;29.00;;;;;15.60;35.42;100000.81;4913228;28;104391;-79
2022/03/23 04:31:46;;;;;;;;;37.25;30.00;;;;;15.61;35.43;99997.03;4898436;28;102354;-79
2022/03/23 04:34:13;;;;;;;;;40.50;32.50;;;;;15.60;35.02;100000.81;4901097;28;105115;-79
2022/03/23 04:36:40;;;;;;;;;36.00;30.75;;;;;15.59;35.24;99993.66;4906650;28;104289;-79
2022/03/23 04:39:07;;;;;;;;;35.50;30.75;;;;;15.58;34.98;99995.53;4897514;28;104027;-78
2022/03/23 04:41:34;;;;;;;;;32.50;29.50;;;;;15.57;35.18;100002.06;4901844;28;102436;-79
2022/03/23 04:44:01;;;;;;;;;32.25;29.50;;;;;15.56;35.17;99994.91;4899649;28;102302;-79
2022/03/23 04:46:28;;;;;;;;;35.50;31.00;;;;;15.54;35.11;99996.13;4896467;28;102571;-79
2022/03/23 04:48:55;;;;;;;;;29.25;27.00;;;;;15.54;35.25;99994.25;4896292;28;104301;-79
2022/03/23 04:51:22;;;;;;;;;36.25;30.75;;;;;15.54;34.91;99988.81;4895024;28;102603;-79
2022/03/23 04:53:50;;;;;;;;;32.75;29.00;;;;;15.53;35.08;99989.88;4898151;28;102558;-79
2022/03/23 04:56:17;;;;;;;;;34.00;28.00;;;;;15.53;35.04;99989.03;4894649;28;102467;-79
2022/03/23 04:58:44;;;;;;;;;33.75;28.25;;;;;15.50;35.00;99986.63;4893975;28;104051;-79
2022/03/23 05:01:11;;;;;;;;;33.50;31.00;;;;;15.49;35.23;99976.81;4893408;28;104650;-79
2022/03/23 05:03:38;;;;;;;;;27.25;22.75;;;;;15.50;35.14;99978.47;4898073;28;102720;-79
2022/03/23 05:06:05;;;;;;;;;32.50;29.50;;;;;15.49;35.16;99982.25;4897909;28;102470;-79
2022/03/23 05:08:32;;;;;;;;;34.00;28.50;;;;;15.49;34.89;99979.53;4914221;28;104017;-79
2022/03/23 05:10:59;;;;;;;;;36.75;31.75;;;;;15.49;35.02;99982.25;4891196;28;102229;-79
2022/03/23 05:13:26;;;;;;;;;29.00;25.00;;;;;15.48;35.57;99975.97;4896488;28;102458;-79
2022/03/23 05:15:53;;;;;;;;;32.00;26.75;;;;;15.49;34.97;99976.81;4891673;28;102599;-79
2022/03/23 05:18:21;;;;;;;;;44.00;30.00;;;;;15.49;35.39;99982.25;4909268;28;104442;-79
2022/03/23 05:20:48;;;;;;;;;31.75;29.25;;;;;15.49;35.57;99983.06;4896559;28;102878;-80
2022/03/23 05:23:16;;;;;;;;;32.25;30.00;;;;;15.48;35.70;99980.56;4891784;28;104206;-79
2022/03/23 05:25:43;;;;;;;;;40.25;33.00;;;;;15.50;35.51;99983.91;4898642;28;103027;-79
2022/03/23 05:28:10;;;;;;;;;38.00;31.00;;;;;15.49;35.39;99982.25;4900105;28;104353;-78
2022/03/23 05:30:37;;;;;;;;;36.75;30.25;;;;;15.48;35.29;99986.84;4902755;28;102373;-79
2022/03/23 05:33:04;;;;;;;;;37.00;29.75;;;;;15.47;35.49;99978.88;4898525;28;102473;-79
2022/03/23 05:35:31;;;;;;;;;31.00;29.00;;;;;15.47;35.39;99974.25;4890249;28;104171;-79
2022/03/23 05:37:58;;;;;;;;;33.75;31.00;;;;;15.46;35.19;99982.63;4902028;28;104295;-79
2022/03/23 05:40:25;;;;;;;;;35.00;31.00;;;;;15.45;35.02;99989.13;4900198;28;102800;-79
2022/03/23 05:42:52;;;;;;;;;33.00;30.50;;;;;15.44;35.33;99985.56;4899153;28;102224;-79
2022/03/23 05:45:22;;;;;;;;;32.00;30.75;;;;;15.42;35.54;99984.91;4899562;28;102937;-79
2022/03/23 05:47:52;;;;;;;;;37.50;31.00;;;;;15.43;35.21;99977.59;4897759;28;104129;-78
2022/03/23 05:50:20;;;;;;;;;36.25;32.25;;;;;15.42;34.71;99976.75;4902802;28;102504;-79
2022/03/23 05:52:47;;;;;;;;;34.50;29.25;;;;;15.44;35.23;99987.44;4903477;28;102606;-79
2022/03/23 05:55:14;;;;;;;;;32.25;28.50;;;;;15.44;35.16;99985.56;4901818;28;102760;-79
2022/03/23 05:57:41;;;;;;;;;35.25;31.75;;;;;15.42;35.16;99982.19;4898549;28;104079;-79
2022/03/23 06:00:08;;;;;;;;;38.50;30.50;;;;;15.43;35.21;99983.88;4898015;28;102228;-79
2022/03/23 06:02:35;;;;;;;;;35.00;31.00;;;;;15.43;35.08;99993.94;4901897;28;108571;-79
2022/03/23 06:05:03;;;;;;;;;38.50;32.75;;;;;15.42;35.12;99986.78;4901271;28;104453;-79
2022/03/23 06:07:30;;;;;;;;;29.25;26.25;;;;;15.41;35.29;99990.56;4901052;28;104101;-79
2022/03/23 06:09:59;;;;;;;;;27.50;23.00;;;;;15.41;34.73;99991.41;4900420;28;102446;-79
2022/03/23 06:12:26;;;;;;;;;33.25;29.75;;;;;15.42;35.21;100003.16;4900487;28;102887;-79
2022/03/23 06:14:53;;;;;;;;;32.25;29.25;;;;;15.40;34.91;99997.06;4890373;28;102547;-78
2022/03/23 06:17:20;;;;;;;;;38.25;31.00;;;;;15.40;34.99;99995.16;4901422;28;104100;-79
2022/03/23 06:19:47;;;;;;;;;36.00;31.50;;;;;15.39;35.13;99992.66;4891903;28;102470;-79
2022/03/23 06:22:14;;;;;;;;;32.75;30.25;;;;;15.37;34.80;99986.53;4893409;28;102589;-79
2022/03/23 06:24:43;;;;;;;;;39.25;31.00;;;;;15.37;34.95;99994.72;4899752;28;102369;-79
2022/03/23 06:27:10;;;;;;;;;33.75;30.75;;;;;15.38;35.00;99996.41;4897071;28;103981;-79
2022/03/23 06:29:37;;;;;;;;;33.00;29.25;;;;;15.36;35.08;99990.31;4895300;28;102619;-79
2022/03/23 06:32:04;;;;;;;;;42.00;33.00;;;;;15.37;34.63;99990.13;4900472;28;102185;-79
2022/03/23 06:34:31;;;;;;;;;36.25;31.25;;;;;15.37;35.02;99986.53;4898017;28;102280;-78
2022/03/23 06:36:58;;;;;;;;;32.75;27.25;;;;;15.37;35.10;99997.44;4894790;28;104025;-79
2022/03/23 06:39:25;;;;;;;;;31.00;29.00;;;;;15.36;34.93;99995.75;4900993;28;103541;-79
2022/03/23 06:41:52;;;;;;;;;35.75;27.25;;;;;15.37;35.23;100000.16;4890102;28;102622;-79
2022/03/23 06:44:19;;;;;;;;;31.75;29.25;;;;;15.36;35.28;99985.69;4903827;28;102503;-79
2022/03/23 06:46:46;;;;;;;;;27.75;24.00;;;;;15.36;34.88;99984.84;4893384;28;104312;-79
2022/03/23 06:49:13;;;;;;;;;35.25;30.75;;;;;15.37;34.59;99989.28;4901489;28;102187;-79
2022/03/23 06:51:40;;;;;;;;;37.00;31.75;;;;;15.36;34.93;99993.03;4894436;28;102675;-78
2022/03/23 06:54:07;;;;;;;;;36.00;31.00;;;;;15.35;34.75;99994.94;4891696;28;102696;-79
2022/03/23 06:56:34;;;;;;;;;36.00;31.00;;;;;15.35;35.20;99996.81;4896630;28;104010;-79
2022/03/23 06:59:04;;;;;;;;;32.00;29.75;;;;;15.35;35.07;100002.28;4891884;28;102759;-79
2022/03/23 07:01:31;;;;;;;;;35.75;30.75;;;;;15.34;35.00;99998.69;4900654;28;102648;-78
2022/03/23 07:03:58;;;;;;;;;35.00;31.50;;;;;15.33;34.84;99994.28;4903605;28;102746;-79
2022/03/23 07:06:25;;;;;;;;;34.00;30.25;;;;;15.34;34.76;99995.13;4889809;28;104384;-79
2022/03/23 07:11:37;;;;;;;;;37.50;31.00;;;;;15.34;34.95;99997.84;4895577;28;102407;-79
2022/03/23 07:14:04;;;;;;;;;33.00;29.25;;;;;15.35;34.69;99996.81;4898995;28;103161;-79
2022/03/23 07:16:31;;;;;;;;;31.75;27.50;;;;;15.36;34.78;99993.03;4893029;28;103869;-79
2022/03/23 07:18:58;;;;;;;;;36.00;30.25;;;;;15.35;34.75;99983.19;4890361;28;102567;-79
2022/03/23 07:21:26;;;;;;;;;37.25;32.50;;;;;15.35;34.86;99983.19;4894407;28;102232;-79
2022/03/23 07:23:53;;;;;;;;;33.75;31.75;;;;;15.35;35.29;99992.22;4896877;28;102779;-78
2022/03/23 07:26:21;;;;;;;;;32.00;28.25;;;;;15.36;34.94;99987.56;4894742;28;104562;-79
2022/03/23 07:28:48;;;;;;;;;34.00;30.50;;;;;15.37;35.10;99981.09;4903697;28;103242;-78
2022/03/23 07:31:16;;;;;;;;;34.50;30.75;;;;;15.37;34.88;99986.53;4899151;28;103834;-79
2022/03/23 07:33:43;;;;;;;;;33.75;29.25;;;;;15.36;34.73;99988.44;4890162;28;102707;-78
2022/03/23 07:36:12;;;;;;;;;35.25;30.50;;;;;15.36;35.07;99988.44;4908096;28;104196;-79
2022/03/23 07:38:39;;;;;;;;;37.00;33.00;;;;;15.36;34.92;99982.97;4889190;28;102208;-79
2022/03/23 07:41:06;;;;;;;;;25.00;21.25;;;;;15.35;34.62;99980.47;4904558;28;105795;-79
2022/03/23 07:43:33;;;;;;;;;31.75;29.00;;;;;15.36;34.60;99979.41;4899544;28;102491;-79
2022/03/23 07:46:00;;;;;;;;;33.75;30.25;;;;;15.36;34.56;99976.69;4892086;28;104055;-79
2022/03/23 07:48:27;;;;;;;;;35.00;28.75;;;;;15.37;34.85;99983.81;4896228;28;102145;-79
2022/03/23 07:50:55;;;;;;;;;34.25;31.00;;;;;15.38;34.77;99986.34;4909120;28;102209;-79
2022/03/23 07:53:22;;;;;;;;;30.75;27.50;;;;;15.38;34.75;99980.06;4912608;28;102750;-79
2022/03/23 07:55:49;;;;;;;;;30.25;26.00;;;;;15.39;34.68;99981.75;4890944;28;104162;-79
2022/03/23 07:58:16;;;;;;;;;38.50;29.25;;;;;15.39;34.55;99981.75;4897754;28;103465;-79
2022/03/23 08:00:43;;;;;;;;;37.50;29.25;;;;;15.38;34.56;99980.06;4903877;28;102380;-79
2022/03/23 08:03:10;;;;;;;;;32.00;27.25;;;;;15.37;34.78;99979.22;4903278;28;102511;-79
2022/03/23 08:05:43;;;;;;;;;29.25;27.25;;;;;15.36;35.05;99976.69;4900373;28;108958;-79
2022/03/23 08:08:10;;;;;;;;;33.00;30.75;;;;;15.36;34.74;99979.41;4900220;28;102531;-79
2022/03/23 08:10:40;;;;;;;;;32.25;29.00;;;;;15.37;34.78;99978.38;4891812;28;102345;-79
2022/03/23 08:13:08;;;;;;;;;38.00;30.00;;;;;15.36;34.73;99972.06;4892131;28;102493;-79
2022/03/23 08:15:36;;;;;;;;;31.50;28.75;;;;;15.36;34.98;99972.06;4912797;28;104366;-79
2022/03/23 08:18:03;;;;;;;;;30.25;29.00;;;;;15.36;35.04;99963.03;4903477;28;102377;-79
2022/03/23 08:20:33;;;;;;;;;30.25;29.00;;;;;15.37;35.10;99973.75;4910816;28;102625;-79
2022/03/23 08:23:08;;;;;;;;;36.50;30.75;;;;;15.38;34.93;99974.59;4899695;28;102478;-79
2022/03/23 08:25:41;;;;;;;;;32.50;27.25;;;;;15.37;34.95;99973.75;4892456;28;104301;-79
2022/03/23 08:28:12;;;;;;;;;32.00;28.25;;;;;15.38;34.78;99970.00;4898226;28;102118;-79
2022/03/23 08:30:40;;;;;;;;;33.25;27.50;;;;;15.38;35.34;99970.00;4900749;28;102565;-79
2022/03/23 08:33:07;;;;;;;;;33.00;26.50;;;;;15.40;34.68;99969.81;4900836;28;102603;-79
2022/03/23 08:35:35;;;;;;;;;35.00;29.25;;;;;15.40;35.12;99962.44;4897831;28;104072;-79
2022/03/23 08:38:02;;;;;;;;;30.50;29.00;;;;;15.40;34.70;99961.63;4895622;28;102458;-79
2022/03/23 08:40:29;;;;;;;;;30.50;27.25;;;;;15.41;34.66;99960.56;4887314;28;102251;-79
2022/03/23 08:42:58;;;;;;;;;30.75;28.75;;;;;15.42;35.01;99956.81;4895353;28;103972;-79
2022/03/23 08:45:25;;;;;;;;;32.75;27.50;;;;;15.42;34.62;99948.63;4900182;28;104262;-79
2022/03/23 08:47:52;;;;;;;;;32.75;31.00;;;;;15.41;34.88;99953.25;4901126;28;104677;-79
2022/03/23 08:50:20;;;;;;;;;31.75;29.50;;;;;15.42;35.02;99943.19;4895183;28;102538;-79
2022/03/23 08:52:47;;;;;;;;;28.25;23.75;;;;;15.42;34.87;99944.03;4922927;28;102724;-79
2022/03/23 08:55:14;;;;;;;;;29.75;28.00;;;;;15.42;34.65;99948.63;4895478;28;104059;-79
2022/03/23 08:57:42;;;;;;;;;37.25;31.00;;;;;15.41;34.72;99947.78;4925077;28;102281;-79
2022/03/23 09:00:09;;;;;;;;;29.25;28.00;;;;;15.42;34.95;99937.72;4894064;28;102553;-79
2022/03/23 09:02:37;;;;;;;;;29.00;26.75;;;;;15.43;34.69;99939.44;4892523;28;102297;-79
2022/03/23 09:05:05;;;;;;;;;32.75;29.00;;;;;15.43;34.57;99944.88;4888306;28;104224;-79
2022/03/23 09:07:35;;;;;;;;;30.00;28.25;;;;;15.43;34.78;99944.88;4899262;28;102461;-79
2022/03/23 09:10:07;;;;;;;;;30.00;28.50;;;;;15.43;34.66;99933.97;4905517;28;102168;-79
2022/03/23 09:12:34;;;;;;;;;27.00;25.75;;;;;15.43;34.88;99936.69;4896108;28;102630;-79
2022/03/23 09:15:01;;;;;;;;;33.50;29.25;;;;;15.44;34.88;99935.66;4895366;28;104090;-79
2022/03/23 09:17:28;;;;;;;;;28.75;25.00;;;;;15.45;34.98;99929.16;4897186;28;102612;-79
2022/03/23 09:19:55;;;;;;;;;32.00;28.00;;;;;15.45;34.63;99926.41;4894502;28;102352;-79
2022/03/23 09:22:22;;;;;;;;;29.50;28.50;;;;;15.46;34.97;99922.66;4893983;28;102235;-79
2022/03/23 09:24:49;;;;;;;;;27.00;26.00;;;;;15.46;34.80;99925.38;4892596;28;104030;-79
2022/03/23 09:27:16;;;;;;;;;29.75;27.00;;;;;15.47;34.50;99913.44;4920189;28;103658;-79
2022/03/23 09:29:44;;;;;;;;;27.00;26.25;;;;;15.48;34.73;99917.88;4896904;28;102285;-79
2022/03/23 09:32:12;;;;;;;;;36.00;29.00;;;;;15.48;34.53;99915.13;4898701;28;102524;-79
2022/03/23 09:34:39;;;;;;;;;25.25;25.00;;;;;15.48;34.70;99904.22;4895768;28;112665;-79
2022/03/23 09:39:51;;;;;;;;;26.50;24.00;;;;;15.49;34.89;99906.75;4898257;28;102674;-79
2022/03/23 09:42:19;;;;;;;;;33.25;29.00;;;;;15.49;34.84;99908.66;4898645;28;102625;-79
2022/03/23 09:44:46;;;;;;;;;31.75;29.25;;;;;15.50;34.66;99907.59;4900116;28;104083;-79
2022/03/23 09:47:13;;;;;;;;;28.75;26.50;;;;;15.48;34.61;99899.63;4901926;28;102544;-79
2022/03/23 09:49:40;;;;;;;;;27.50;23.25;;;;;15.51;35.04;99906.59;4894446;28;102536;-79
2022/03/23 09:52:07;;;;;;;;;26.50;26.00;;;;;15.51;34.73;99895.69;4896895;28;102791;-79
2022/03/23 09:54:34;;;;;;;;;29.75;24.50;;;;;15.51;35.07;99898.41;4900200;28;104190;-79
2022/03/23 09:57:01;;;;;;;;;28.25;26.50;;;;;15.53;34.76;99896.34;4896029;28;102445;-79
2022/03/23 09:59:28;;;;;;;;;28.00;25.00;;;;;15.54;35.09;99896.09;4892451;28;102579;-79
2022/03/23 10:02:01;;;;;;;;;30.00;27.75;;;;;15.55;34.92;99888.78;4900774;28;102527;-79
2022/03/23 10:05:29;;;;;;;;;26.75;23.75;;;;;15.55;34.89;99883.31;4897032;28;104023;-79
2022/03/23 10:08:21;;;;;;;;;27.50;24.75;;;;;15.55;35.13;99878.72;4855272;28;103122;-79
2022/03/23 10:11:12;;;;;;;;;29.25;25.75;;;;;15.56;34.45;99872.22;4899418;28;103074;-79
2022/03/23 10:14:30;;;;;;;;;27.25;24.00;;;;;15.58;34.78;99882.91;4898648;28;102555;-79
2022/03/23 10:17:18;;;;;;;;;29.25;24.50;;;;;15.59;35.32;99870.97;4872433;28;108798;-79
2022/03/23 10:19:45;;;;;;;;;24.25;22.75;;;;;15.59;34.67;99868.25;4894868;28;102589;-79
2022/03/23 10:22:13;;;;;;;;;23.75;22.75;;;;;15.58;34.80;99861.09;4901228;28;102579;-79
2022/03/23 10:24:40;;;;;;;;;33.50;26.50;;;;;15.59;35.07;99858.19;4896901;28;102253;-79
2022/03/23 10:27:12;;;;;;;;;24.25;22.50;;;;;15.60;34.89;99859.03;4903221;28;104297;-79
2022/03/23 10:29:46;;;;;;;;;24.25;23.50;;;;;15.60;35.17;99859.88;4893822;28;102726;-79
2022/03/23 10:32:14;;;;;;;;;29.75;24.25;;;;;15.61;35.21;99855.25;4895920;28;102228;-79
2022/03/23 10:34:46;;;;;;;;;23.00;20.50;;;;;15.62;34.96;99856.94;4887356;28;102564;-79
2022/03/23 10:37:14;;;;;;;;;24.00;23.25;;;;;15.63;35.18;99847.69;4909863;28;108211;-79
2022/03/23 10:39:43;;;;;;;;;28.50;23.25;;;;;15.65;34.94;99840.19;4899633;28;103468;-79
2022/03/23 10:42:18;;;;;;;;;22.50;22.25;;;;;15.66;34.64;99841.88;4909344;28;102732;-79
2022/03/23 10:44:45;;;;;;;;;24.25;22.75;;;;;15.67;35.08;99843.53;4896455;28;102217;-80
2022/03/23 10:47:31;;;;;;;;;29.50;24.75;;;;;15.68;34.98;99834.31;4895829;28;104225;-79
2022/03/23 10:50:12;;;;;;;;;22.75;21.75;;;;;15.69;35.19;99836.00;4896778;28;102807;-79
2022/03/23 10:53:05;;;;;;;;;25.50;21.00;;;;;15.69;35.01;99825.09;4894499;28;105247;-79
2022/03/23 10:55:38;;;;;;;;;26.75;23.00;;;;;15.70;35.04;99817.75;4892784;28;103473;-78
2022/03/23 10:58:13;;;;;;;;;20.75;20.25;;;;;15.70;34.74;99810.41;4888475;28;104110;-79
2022/03/23 11:00:40;;;;;;;;;21.50;20.50;;;;;15.71;34.96;99809.38;4895686;28;102380;-79
2022/03/23 11:03:08;;;;;;;;;22.00;19.50;;;;;15.72;34.79;99811.03;4902263;28;101980;-79
2022/03/23 11:05:40;;;;;;;;;24.00;21.50;;;;;15.74;35.46;99800.78;4896294;28;102543;-79
2022/03/23 11:08:11;;;;;;;;;22.50;17.00;;;;;15.75;34.71;99802.47;4898533;28;104191;-79
2022/03/23 11:16:21;;;;;;;;;23.25;22.00;;;;;15.80;35.17;99794.50;4886662;28;102625;-79
2022/03/23 11:18:49;;;;;;;;;24.25;22.00;;;;;15.82;35.08;99781.50;4901036;28;104370;-79
2022/03/23 11:21:16;;;;;;;;;23.50;20.25;;;;;15.83;34.79;99783.19;4896450;28;102685;-79
2022/03/23 11:23:43;;;;;;;;;25.75;20.00;;;;;15.86;34.71;99777.31;4889537;28;102589;-79
2022/03/23 11:26:10;;;;;;;;;24.00;21.25;;;;;15.87;34.90;99779.00;4899450;28;102354;-79
2022/03/23 11:28:42;;;;;;;;;24.75;20.25;;;;;15.89;34.88;99763.28;4891574;28;104299;-79
2022/03/23 11:31:10;;;;;;;;;22.75;20.25;;;;;15.91;34.59;99758.44;4890825;28;104626;-79
2022/03/23 11:33:38;;;;;;;;;21.00;20.00;;;;;15.93;34.98;99750.91;4891271;28;102465;-79